Ana Sayfa
METAR-TAF:

METAR-TAF

Havaalanları :

Nakşa, Yunanistan

Enlem: 37-04-47N, Boylam: 025-22-01E, yükseklik: 3 m

Güncel hava durumu gözlemi

Rapor saat 08:50 UTC de 2 saat ve 59 dakika önce yapıldı.
Rüzgar kuzeydan 8 kt
Sıcaklık 19°C
Nem 49%
Basınç 1024 hPa
Görüş mesafesi 10 km veya daha fazla
4000 ft yükseklikte az bulutlu

METAR: LGNX 240850Z 35008KT 9999 FEW040 19/08 Q1024

Saat: 14:49 (11:49 UTC)


TAF: eksik

4.000'den fazla havaalanı için hava durumu gözlemleri ve tahminleri (METAR ve TAF raporları).

Kullanılabilir istasyonlar harita üzerinde sarı ve kırmızı noktalarla gösterilir.

İstasyonun adını görmek için fareyi noktanın üzerinde gezdirin.

Sonrasında hava gözlem ve tahminlerini görmek için tıklayın.

Haritayı değiştirmek için: yaklaştırmak için siyah artı işaretli yeşil düğmeye ve uzaklaştırmak için de eksi işaretli düğmeye hızla tıklayın; bitişik haritalar için yeşil okları kullanın.


METAR-TAF: